createdAt,value
2023-02-26T00:00:46.132Z,11.90
2023-02-26T00:01:46.146Z,9.60
2023-02-26T00:02:46.137Z,8.30
2023-02-26T00:03:46.087Z,8.20
2023-02-26T00:04:46.112Z,9.60
2023-02-26T00:05:46.074Z,9.60
2023-02-26T00:06:46.079Z,10.00
2023-02-26T00:07:46.058Z,11.20
2023-02-26T00:08:46.159Z,8.40
2023-02-26T00:09:46.028Z,11.40
2023-02-26T00:10:46.081Z,10.10
2023-02-26T00:11:46.031Z,10.30
2023-02-26T00:12:46.017Z,8.80
2023-02-26T00:13:46.018Z,11.10
2023-02-26T00:14:46.001Z,8.80
2023-02-26T00:15:45.972Z,11.30
2023-02-26T00:16:46.138Z,10.80
2023-02-26T00:17:45.955Z,10.70
2023-02-26T00:18:45.976Z,11.30
2023-02-26T00:19:45.924Z,8.40
2023-02-26T00:20:45.973Z,10.30
2023-02-26T00:21:45.915Z,10.30
2023-02-26T00:22:45.948Z,10.50
2023-02-26T00:23:45.883Z,8.90
2023-02-26T00:24:45.894Z,10.80
2023-02-26T00:25:45.888Z,11.40
2023-02-26T00:26:45.892Z,10.70
2023-02-26T00:27:45.849Z,9.20
2023-02-26T00:28:45.884Z,9.70
2023-02-26T00:29:45.831Z,8.20
2023-02-26T00:30:45.886Z,7.30
2023-02-26T00:31:45.985Z,10.20
2023-02-26T00:32:45.977Z,9.90
2023-02-26T00:33:45.789Z,11.00
2023-02-26T00:34:45.818Z,10.00
2023-02-26T00:35:45.774Z,10.40
2023-02-26T00:36:45.792Z,7.90
2023-02-26T00:37:45.752Z,8.80
2023-02-26T00:38:45.758Z,9.90
2023-02-26T00:39:45.734Z,7.90
2023-02-26T00:40:45.770Z,9.40
2023-02-26T00:41:45.836Z,8.70
2023-02-26T00:42:45.732Z,11.40
2023-02-26T00:43:45.689Z,9.50
2023-02-26T00:44:45.702Z,10.80
2023-02-26T00:45:45.692Z,9.10
2023-02-26T00:46:45.731Z,10.10
2023-02-26T00:47:45.654Z,10.10
2023-02-26T00:48:45.661Z,10.60
2023-02-26T00:49:45.627Z,8.40
2023-02-26T00:50:45.648Z,9.60
2023-02-26T00:51:45.614Z,8.70
2023-02-26T00:52:45.635Z,11.00
2023-02-26T00:53:45.596Z,11.20
2023-02-26T00:54:45.623Z,9.30
2023-02-26T00:55:45.592Z,9.30
2023-02-26T00:56:45.589Z,11.70
2023-02-26T00:57:45.551Z,10.30
2023-02-26T00:58:45.596Z,9.40
2023-02-26T00:59:45.532Z,9.30
2023-02-26T01:00:45.548Z,11.70
2023-02-26T01:01:45.581Z,11.10
2023-02-26T01:02:45.536Z,10.40
2023-02-26T01:03:45.591Z,10.60
2023-02-26T01:04:45.526Z,9.00
2023-02-26T01:05:45.472Z,10.20
2023-02-26T01:06:45.482Z,11.20
2023-02-26T01:07:45.454Z,10.30
2023-02-26T01:08:45.464Z,9.40
2023-02-26T01:09:45.436Z,11.20
2023-02-26T01:10:45.484Z,8.50
2023-02-26T01:11:45.411Z,10.50
2023-02-26T01:12:45.424Z,12.60
2023-02-26T01:13:45.391Z,8.70
2023-02-26T01:14:45.405Z,9.90
2023-02-26T01:15:45.430Z,9.60
2023-02-26T01:16:45.401Z,12.10
2023-02-26T01:17:45.359Z,10.20
2023-02-26T01:18:45.371Z,10.60
2023-02-26T01:19:45.356Z,9.40
2023-02-26T01:20:45.344Z,9.80
2023-02-26T01:21:45.310Z,10.20
2023-02-26T01:22:45.359Z,9.50
2023-02-26T01:23:45.293Z,10.10
2023-02-26T01:24:46.212Z,10.00
2023-02-26T01:25:45.278Z,11.00
2023-02-26T01:26:45.287Z,8.60
2023-02-26T01:27:45.257Z,7.00
2023-02-26T01:28:45.284Z,8.80
2023-02-26T01:29:45.237Z,9.10
2023-02-26T01:30:45.304Z,10.00
2023-02-26T01:31:45.413Z,9.30
2023-02-26T01:32:45.362Z,9.40
2023-02-26T01:33:45.196Z,9.60
2023-02-26T01:34:45.227Z,8.50
2023-02-26T01:35:45.173Z,9.40
2023-02-26T01:36:45.192Z,7.70
2023-02-26T01:37:45.153Z,8.20
2023-02-26T01:38:45.185Z,10.60
2023-02-26T01:39:45.132Z,9.40
2023-02-26T01:40:45.181Z,9.10
2023-02-26T01:41:45.119Z,9.40
2023-02-26T01:42:45.132Z,9.70
2023-02-26T01:43:45.095Z,7.30
2023-02-26T01:44:45.112Z,10.50
2023-02-26T01:45:45.095Z,10.80
2023-02-26T01:46:45.164Z,7.60
2023-02-26T01:47:45.061Z,10.00
2023-02-26T01:48:45.069Z,10.30
2023-02-26T01:49:45.042Z,9.00
2023-02-26T01:50:45.066Z,9.10
2023-02-26T01:51:45.020Z,10.50
2023-02-26T01:52:45.051Z,9.10
2023-02-26T01:53:44.996Z,11.50
2023-02-26T01:54:45.016Z,8.40
2023-02-26T01:55:44.983Z,10.50
2023-02-26T01:56:44.991Z,9.50
2023-02-26T01:57:44.965Z,9.10
2023-02-26T01:58:45.004Z,8.70
2023-02-26T01:59:44.946Z,8.90
2023-02-26T02:00:44.951Z,10.70
2023-02-26T02:01:44.920Z,8.90
2023-02-26T02:02:45.050Z,10.70
2023-02-26T02:03:44.964Z,9.90
2023-02-26T02:04:44.937Z,10.20
2023-02-26T02:05:44.888Z,9.70
2023-02-26T02:06:44.909Z,7.80
2023-02-26T02:07:44.873Z,10.40
2023-02-26T02:08:44.883Z,9.90
2023-02-26T02:09:44.844Z,11.10
2023-02-26T02:10:44.874Z,9.20
2023-02-26T02:11:44.827Z,9.60
2023-02-26T02:12:44.835Z,8.50
2023-02-26T02:13:44.802Z,8.70
2023-02-26T02:14:44.824Z,10.00
2023-02-26T02:15:44.783Z,10.10
2023-02-26T02:16:44.854Z,10.70
2023-02-26T02:17:44.768Z,10.90
2023-02-26T02:18:44.773Z,10.00
2023-02-26T02:19:44.780Z,10.80
2023-02-26T02:20:44.753Z,9.70
2023-02-26T02:21:44.717Z,9.20
2023-02-26T02:22:44.769Z,8.80
2023-02-26T02:23:44.700Z,9.40
2023-02-26T02:24:44.722Z,9.00
2023-02-26T02:25:44.681Z,9.30
2023-02-26T02:26:44.690Z,8.70
2023-02-26T02:27:44.661Z,8.90
2023-02-26T02:28:44.704Z,10.20
2023-02-26T02:29:44.654Z,9.40
2023-02-26T02:30:44.650Z,8.90
2023-02-26T02:31:44.797Z,10.20
2023-02-26T02:32:44.648Z,8.80
2023-02-26T02:33:44.608Z,11.10
2023-02-26T02:34:44.635Z,12.40
2023-02-26T02:35:44.583Z,11.60
2023-02-26T02:36:44.601Z,10.20
2023-02-26T02:37:44.559Z,9.30
2023-02-26T02:38:44.579Z,10.60
2023-02-26T02:39:44.538Z,11.50
2023-02-26T02:40:44.569Z,10.60
2023-02-26T02:41:44.525Z,11.20
2023-02-26T02:42:44.536Z,9.40
2023-02-26T02:43:44.518Z,10.90
2023-02-26T02:44:44.520Z,9.80
2023-02-26T02:45:44.668Z,11.70
2023-02-26T02:46:44.552Z,11.50
2023-02-26T02:47:44.465Z,10.10
2023-02-26T02:48:44.474Z,9.30
2023-02-26T02:49:44.454Z,9.70
2023-02-26T02:50:44.456Z,10.40
2023-02-26T02:51:44.475Z,11.40
2023-02-26T02:52:44.474Z,11.40
2023-02-26T02:53:44.422Z,9.30
2023-02-26T02:54:44.422Z,8.50
2023-02-26T02:55:44.416Z,8.40
2023-02-26T02:56:44.399Z,10.20
2023-02-26T02:57:44.369Z,11.60
2023-02-26T02:58:44.402Z,8.90
2023-02-26T02:59:44.371Z,8.70
2023-02-26T03:00:44.382Z,9.20
2023-02-26T03:01:44.326Z,9.00
2023-02-26T03:02:44.416Z,10.30
2023-02-26T03:03:44.307Z,10.80
2023-02-26T03:04:44.343Z,8.10
2023-02-26T03:05:44.289Z,9.90
2023-02-26T03:06:44.304Z,10.70
2023-02-26T03:07:44.278Z,10.60
2023-02-26T03:08:44.279Z,9.70
2023-02-26T03:09:44.252Z,9.60
2023-02-26T03:10:44.283Z,10.10
2023-02-26T03:11:44.227Z,9.50
2023-02-26T03:12:44.244Z,11.10
2023-02-26T03:13:44.216Z,10.40
2023-02-26T03:14:44.222Z,9.50
2023-02-26T03:15:44.200Z,9.10
2023-02-26T03:16:44.346Z,10.80
2023-02-26T03:17:44.182Z,10.00
2023-02-26T03:18:44.198Z,8.60
2023-02-26T03:19:44.151Z,8.20
2023-02-26T03:20:44.173Z,10.30
2023-02-26T03:21:44.135Z,8.20
2023-02-26T03:22:44.156Z,10.10
2023-02-26T03:23:44.115Z,9.40
2023-02-26T03:24:44.129Z,10.20
2023-02-26T03:25:44.099Z,8.60
2023-02-26T03:26:44.108Z,11.40
2023-02-26T03:27:44.075Z,9.00
2023-02-26T03:28:44.113Z,8.10
2023-02-26T03:29:44.055Z,10.90
2023-02-26T03:30:44.094Z,8.80
2023-02-26T03:31:44.121Z,10.30
2023-02-26T03:32:44.158Z,9.20
2023-02-26T03:33:44.014Z,8.10
2023-02-26T03:34:44.063Z,7.40
2023-02-26T03:35:44.000Z,7.80
2023-02-26T03:36:44.010Z,10.60
2023-02-26T03:37:43.981Z,8.80
2023-02-26T03:38:43.990Z,8.60
2023-02-26T03:39:43.958Z,9.60
2023-02-26T03:40:44.007Z,8.10
2023-02-26T03:41:43.939Z,10.70
2023-02-26T03:42:43.963Z,7.80
2023-02-26T03:43:43.932Z,10.80
2023-02-26T03:44:43.933Z,9.10
2023-02-26T03:45:43.930Z,7.90
2023-02-26T03:46:43.927Z,9.00
2023-02-26T03:47:43.882Z,9.10
2023-02-26T03:48:43.935Z,8.70
2023-02-26T03:49:43.875Z,7.70
2023-02-26T03:50:43.879Z,8.50
2023-02-26T03:51:43.853Z,8.70
2023-02-26T03:52:43.880Z,9.90
2023-02-26T03:53:43.823Z,11.50
2023-02-26T03:54:43.839Z,8.50
2023-02-26T03:55:43.802Z,9.90
2023-02-26T03:56:43.820Z,7.60
2023-02-26T03:57:43.778Z,9.50
2023-02-26T03:58:43.809Z,8.70
2023-02-26T03:59:43.766Z,8.50
2023-02-26T04:00:43.758Z,10.30
2023-02-26T04:01:43.771Z,8.70
2023-02-26T04:02:43.740Z,8.10
2023-02-26T04:03:43.754Z,8.50
2023-02-26T04:04:43.744Z,9.80
2023-02-26T04:05:43.723Z,8.60
2023-02-26T04:06:43.691Z,7.60
2023-02-26T04:07:43.727Z,9.60
2023-02-26T04:08:43.673Z,8.20
2023-02-26T04:09:43.690Z,8.40
2023-02-26T04:10:43.673Z,8.00
2023-02-26T04:11:43.666Z,9.30
2023-02-26T04:12:43.632Z,7.60
2023-02-26T04:13:43.667Z,7.60
2023-02-26T04:14:43.628Z,9.50
2023-02-26T04:15:44.270Z,9.20
2023-02-26T04:16:43.634Z,9.10
2023-02-26T04:17:43.608Z,10.00
2023-02-26T04:18:43.588Z,9.80
2023-02-26T04:19:43.589Z,8.30
2023-02-26T04:20:43.564Z,7.80
2023-02-26T04:21:43.577Z,9.10
2023-02-26T04:22:43.557Z,9.10
2023-02-26T04:23:43.524Z,7.40
2023-02-26T04:24:43.542Z,9.60
2023-02-26T04:25:43.524Z,9.70
2023-02-26T04:26:43.525Z,8.30
2023-02-26T04:27:43.490Z,6.50
2023-02-26T04:28:43.516Z,10.90
2023-02-26T04:29:43.474Z,9.30
2023-02-26T04:30:43.497Z,8.00
2023-02-26T04:31:43.536Z,9.90
2023-02-26T04:32:43.454Z,9.30
2023-02-26T04:33:43.427Z,9.90
2023-02-26T04:34:43.448Z,8.60
2023-02-26T04:35:43.404Z,8.40
2023-02-26T04:36:43.424Z,8.90
2023-02-26T04:37:43.387Z,8.50
2023-02-26T04:38:43.401Z,7.90
2023-02-26T04:39:43.370Z,9.00
2023-02-26T04:40:43.403Z,8.20
2023-02-26T04:41:43.354Z,8.50
2023-02-26T04:42:43.719Z,9.00
2023-02-26T04:43:43.356Z,10.70
2023-02-26T04:44:43.342Z,10.40
2023-02-26T04:45:43.311Z,8.10
2023-02-26T04:46:43.343Z,8.50
2023-02-26T04:47:43.302Z,9.60
2023-02-26T04:48:43.309Z,8.50
2023-02-26T04:49:43.300Z,9.30
2023-02-26T04:50:43.289Z,10.00
2023-02-26T04:51:43.250Z,7.60
2023-02-26T04:52:43.290Z,8.50
2023-02-26T04:53:43.226Z,13.10
2023-02-26T04:54:43.243Z,11.00
2023-02-26T04:55:43.222Z,12.20
2023-02-26T04:56:43.242Z,12.30
2023-02-26T04:57:43.191Z,12.20
2023-02-26T04:58:43.226Z,14.60
2023-02-26T04:59:43.163Z,11.50
2023-02-26T05:00:43.195Z,7.80
2023-02-26T05:01:43.199Z,12.30
2023-02-26T05:02:43.157Z,9.50
2023-02-26T05:03:43.134Z,10.70
2023-02-26T05:04:43.221Z,10.80
2023-02-26T05:05:43.118Z,11.20
2023-02-26T05:06:43.126Z,11.50
2023-02-26T05:07:43.093Z,10.30
2023-02-26T05:08:43.210Z,10.10
2023-02-26T05:09:43.077Z,11.10
2023-02-26T05:10:43.116Z,11.90
2023-02-26T05:11:43.067Z,12.20
2023-02-26T05:12:43.065Z,9.80
2023-02-26T05:13:43.036Z,9.60
2023-02-26T05:14:43.052Z,10.50
2023-02-26T05:15:43.040Z,8.80
2023-02-26T05:16:43.087Z,8.70
2023-02-26T05:17:42.997Z,8.50
2023-02-26T05:18:43.014Z,10.40
2023-02-26T05:19:42.985Z,9.10
2023-02-26T05:20:42.994Z,9.40
2023-02-26T05:21:42.957Z,9.30
2023-02-26T05:22:43.010Z,10.40
2023-02-26T05:23:42.941Z,10.30
2023-02-26T05:24:42.954Z,8.60
2023-02-26T05:25:42.923Z,9.40
2023-02-26T05:26:42.936Z,12.30
2023-02-26T05:27:42.902Z,9.10
2023-02-26T05:28:42.938Z,9.60
2023-02-26T05:29:42.891Z,9.60
2023-02-26T05:30:42.948Z,10.50
2023-02-26T05:31:43.079Z,7.70
2023-02-26T05:32:42.880Z,8.50
2023-02-26T05:33:42.849Z,10.40
2023-02-26T05:34:42.919Z,9.90
2023-02-26T05:35:42.828Z,8.20
2023-02-26T05:36:42.837Z,11.10
2023-02-26T05:37:42.810Z,9.70
2023-02-26T05:38:42.818Z,9.10
2023-02-26T05:39:42.794Z,6.90
2023-02-26T05:40:42.822Z,9.00
2023-02-26T05:41:42.787Z,9.20
2023-02-26T05:42:42.789Z,9.60
2023-02-26T05:43:42.749Z,7.70
2023-02-26T05:44:42.784Z,7.30
2023-02-26T05:45:42.727Z,9.00
2023-02-26T05:46:42.788Z,10.20
2023-02-26T05:47:42.707Z,8.90
2023-02-26T05:48:44.729Z,7.80
2023-02-26T05:49:42.684Z,8.70
2023-02-26T05:50:42.711Z,11.10
2023-02-26T05:51:42.672Z,9.70
2023-02-26T05:52:42.704Z,9.60
2023-02-26T05:53:42.655Z,10.10
2023-02-26T05:54:42.660Z,13.60
2023-02-26T05:55:42.625Z,14.30
2023-02-26T05:56:42.640Z,13.70
2023-02-26T05:57:42.606Z,11.00
2023-02-26T05:58:42.644Z,10.90
2023-02-26T05:59:42.586Z,11.10
2023-02-26T06:00:42.599Z,12.50
2023-02-26T06:01:42.601Z,10.60
2023-02-26T06:02:42.640Z,10.70
2023-02-26T06:03:42.569Z,10.50
2023-02-26T06:04:42.605Z,8.40
2023-02-26T06:05:42.529Z,8.50
2023-02-26T06:06:42.583Z,10.20
2023-02-26T06:07:42.511Z,9.50
2023-02-26T06:08:42.520Z,8.50
2023-02-26T06:09:42.495Z,11.70
2023-02-26T06:10:42.524Z,11.20
2023-02-26T06:11:42.472Z,9.20
2023-02-26T06:12:42.502Z,10.30
2023-02-26T06:13:42.472Z,9.30
2023-02-26T06:14:42.471Z,8.30
2023-02-26T06:15:42.444Z,8.20
2023-02-26T06:16:42.501Z,10.60
2023-02-26T06:17:42.416Z,9.80
2023-02-26T06:18:42.430Z,9.40
2023-02-26T06:19:42.391Z,9.30
2023-02-26T06:20:42.405Z,9.60
2023-02-26T06:21:42.369Z,10.10
2023-02-26T06:22:42.417Z,9.90
2023-02-26T06:23:42.355Z,10.80
2023-02-26T06:24:42.341Z,8.90
2023-02-26T06:25:42.344Z,9.30
2023-02-26T06:26:42.353Z,10.40
2023-02-26T06:27:42.314Z,9.10
2023-02-26T06:28:42.348Z,9.80
2023-02-26T06:29:42.293Z,7.20
2023-02-26T06:30:42.381Z,8.20
2023-02-26T06:31:42.379Z,9.40
2023-02-26T06:32:42.381Z,10.10
2023-02-26T06:33:42.275Z,9.20
2023-02-26T06:34:42.296Z,11.10
2023-02-26T06:35:42.249Z,9.90
2023-02-26T06:36:42.251Z,8.70
2023-02-26T06:37:42.219Z,10.30
2023-02-26T06:38:42.241Z,8.50
2023-02-26T06:39:42.206Z,8.80
2023-02-26T06:40:42.230Z,8.20
2023-02-26T06:41:42.179Z,7.30
2023-02-26T06:42:42.191Z,9.60
2023-02-26T06:43:42.160Z,7.30
2023-02-26T06:44:42.175Z,8.90
2023-02-26T06:45:42.230Z,8.50
2023-02-26T06:46:42.350Z,8.20
2023-02-26T06:47:42.122Z,12.50
2023-02-26T06:48:42.134Z,10.40
2023-02-26T06:49:42.110Z,9.40
2023-02-26T06:50:42.119Z,8.30
2023-02-26T06:51:42.087Z,9.50
2023-02-26T06:52:42.123Z,9.40
2023-02-26T06:53:42.064Z,9.60
2023-02-26T06:54:42.082Z,9.50
2023-02-26T06:55:42.045Z,8.20
2023-02-26T06:56:42.062Z,9.50
2023-02-26T06:57:42.030Z,12.10
2023-02-26T06:58:42.052Z,7.30
2023-02-26T06:59:42.082Z,11.30
2023-02-26T07:00:42.025Z,7.00
2023-02-26T07:01:42.003Z,9.10
2023-02-26T07:02:42.062Z,9.30
2023-02-26T07:03:41.971Z,9.20
2023-02-26T07:04:42.003Z,8.60
2023-02-26T07:05:41.952Z,7.60
2023-02-26T07:06:42.297Z,10.00
2023-02-26T07:07:41.925Z,9.10
2023-02-26T07:08:41.919Z,10.90
2023-02-26T07:09:41.915Z,10.30
2023-02-26T07:10:41.948Z,10.50
2023-02-26T07:11:41.889Z,10.30
2023-02-26T07:12:41.912Z,10.30
2023-02-26T07:13:41.869Z,8.40
2023-02-26T07:14:41.887Z,9.50
2023-02-26T07:15:41.849Z,10.30
2023-02-26T07:16:41.939Z,9.60
2023-02-26T07:17:41.827Z,8.90
2023-02-26T07:18:41.845Z,8.90
2023-02-26T07:19:41.814Z,11.00
2023-02-26T07:20:41.817Z,9.40
2023-02-26T07:21:41.787Z,10.10
2023-02-26T07:22:41.826Z,7.80
2023-02-26T07:23:41.774Z,7.70
2023-02-26T07:24:41.781Z,9.30
2023-02-26T07:25:41.751Z,6.90
2023-02-26T07:26:41.760Z,6.60
2023-02-26T07:27:43.799Z,10.10
2023-02-26T07:28:41.762Z,7.40
2023-02-26T07:29:41.712Z,8.90
2023-02-26T07:30:41.776Z,9.80
2023-02-26T07:31:41.905Z,10.60
2023-02-26T07:32:41.708Z,10.90
2023-02-26T07:33:41.669Z,8.30
2023-02-26T07:34:41.710Z,9.50
2023-02-26T07:35:41.651Z,9.00
2023-02-26T07:36:41.669Z,9.10
2023-02-26T07:37:41.629Z,9.00
2023-02-26T07:38:41.638Z,8.40
2023-02-26T07:39:41.606Z,7.30
2023-02-26T07:40:41.636Z,10.00
2023-02-26T07:41:41.583Z,9.90
2023-02-26T07:42:41.729Z,8.60
2023-02-26T07:43:41.562Z,9.90
2023-02-26T07:44:41.599Z,11.30
2023-02-26T07:45:41.546Z,7.90
2023-02-26T07:46:41.571Z,7.70
2023-02-26T07:47:41.524Z,10.20
2023-02-26T07:48:41.541Z,7.90
2023-02-26T07:49:41.508Z,8.40
2023-02-26T07:50:41.521Z,11.60
2023-02-26T07:51:41.484Z,11.20
2023-02-26T07:52:41.513Z,8.50
2023-02-26T07:53:41.470Z,8.60
2023-02-26T07:54:41.475Z,8.80
2023-02-26T07:55:41.449Z,9.00
2023-02-26T07:56:41.456Z,8.80
2023-02-26T07:57:41.440Z,7.60
2023-02-26T07:58:41.451Z,8.40
2023-02-26T07:59:41.403Z,8.70
2023-02-26T08:00:41.441Z,7.80
2023-02-26T08:01:41.405Z,7.30
2023-02-26T08:02:41.400Z,5.60
2023-02-26T08:03:41.360Z,10.20
2023-02-26T08:04:41.390Z,7.50
2023-02-26T08:05:41.344Z,6.20
2023-02-26T08:06:41.356Z,8.60
2023-02-26T08:07:41.327Z,6.50
2023-02-26T08:08:41.333Z,8.00
2023-02-26T08:09:41.303Z,8.20
2023-02-26T08:10:42.203Z,5.80
2023-02-26T08:11:41.284Z,8.80
2023-02-26T08:12:41.294Z,8.70
2023-02-26T08:13:41.261Z,9.30
2023-02-26T08:14:41.278Z,9.80
2023-02-26T08:15:41.342Z,7.50
2023-02-26T08:16:41.257Z,7.30
2023-02-26T08:17:41.243Z,7.80
2023-02-26T08:18:41.211Z,7.50
2023-02-26T08:19:41.224Z,8.10
2023-02-26T08:20:41.194Z,6.70
2023-02-26T08:21:41.202Z,6.80
2023-02-26T08:22:41.227Z,5.70
2023-02-26T08:23:41.183Z,8.40
2023-02-26T08:24:41.151Z,6.90
2023-02-26T08:25:41.168Z,7.80
2023-02-26T08:26:41.132Z,8.90
2023-02-26T08:27:41.146Z,8.30
2023-02-26T08:28:41.143Z,6.90
2023-02-26T08:29:41.123Z,8.50
2023-02-26T08:30:41.153Z,9.10
2023-02-26T08:31:41.325Z,6.70
2023-02-26T08:32:41.084Z,7.20
2023-02-26T08:33:41.085Z,8.70
2023-02-26T08:34:41.074Z,6.90
2023-02-26T08:35:41.066Z,10.80
2023-02-26T08:36:41.036Z,7.20
2023-02-26T08:37:41.053Z,7.50
2023-02-26T08:38:41.011Z,8.00
2023-02-26T08:39:41.025Z,8.60
2023-02-26T08:40:41.020Z,8.50
2023-02-26T08:41:41.010Z,7.00
2023-02-26T08:42:40.969Z,7.40
2023-02-26T08:43:40.990Z,8.30
2023-02-26T08:44:40.952Z,8.70
2023-02-26T08:45:40.964Z,8.30
2023-02-26T08:46:40.973Z,6.50
2023-02-26T08:47:53.874Z,8.00
2023-02-26T08:48:40.915Z,8.30
2023-02-26T08:49:40.924Z,6.90
2023-02-26T08:50:40.894Z,9.50
2023-02-26T08:51:40.914Z,7.20
2023-02-26T08:52:40.889Z,8.40
2023-02-26T08:53:40.887Z,7.00
2023-02-26T08:54:40.851Z,9.60
2023-02-26T08:55:40.862Z,7.30
2023-02-26T08:56:40.832Z,8.10
2023-02-26T08:57:40.843Z,5.70
2023-02-26T08:58:40.840Z,9.00
2023-02-26T08:59:40.823Z,8.30
2023-02-26T09:00:40.795Z,7.30
2023-02-26T09:01:40.830Z,7.30
2023-02-26T09:02:40.823Z,8.30
2023-02-26T09:03:40.785Z,7.70
2023-02-26T09:04:40.764Z,9.40
2023-02-26T09:05:40.768Z,6.60
2023-02-26T09:06:40.736Z,8.30
2023-02-26T09:07:40.748Z,7.60
2023-02-26T09:08:40.710Z,6.40
2023-02-26T09:09:40.723Z,7.60
2023-02-26T09:10:41.227Z,6.90
2023-02-26T09:11:40.710Z,8.00
2023-02-26T09:12:40.671Z,5.90
2023-02-26T09:13:40.684Z,7.60
2023-02-26T09:14:40.661Z,6.10
2023-02-26T09:15:40.669Z,6.60
2023-02-26T09:16:40.707Z,7.90
2023-02-26T09:17:40.645Z,6.80
2023-02-26T09:18:40.615Z,8.80
2023-02-26T09:19:40.621Z,6.20
2023-02-26T09:20:40.589Z,7.50
2023-02-26T09:21:40.603Z,6.20
2023-02-26T09:22:40.583Z,6.20
2023-02-26T09:23:40.582Z,6.60
2023-02-26T09:24:40.710Z,7.00
2023-02-26T09:25:40.576Z,5.30
2023-02-26T09:26:40.529Z,9.10
2023-02-26T09:27:40.545Z,7.70
2023-02-26T09:28:40.690Z,6.50
2023-02-26T09:29:40.518Z,7.30
2023-02-26T09:30:40.486Z,6.20
2023-02-26T09:31:40.659Z,6.80
2023-02-26T09:32:40.509Z,5.30
2023-02-26T09:33:40.496Z,9.40
2023-02-26T09:34:40.679Z,7.20
2023-02-26T09:35:40.463Z,7.20
2023-02-26T09:36:40.423Z,5.90
2023-02-26T09:37:40.446Z,4.60
2023-02-26T09:38:40.407Z,7.20
2023-02-26T09:39:40.418Z,7.30
2023-02-26T09:40:40.434Z,6.00
2023-02-26T09:41:40.399Z,8.30
2023-02-26T09:42:40.365Z,8.90
2023-02-26T09:43:40.374Z,6.90
2023-02-26T09:44:40.349Z,6.50
2023-02-26T09:45:41.890Z,7.00
2023-02-26T09:46:40.398Z,7.60
2023-02-26T09:47:40.336Z,6.40
2023-02-26T09:48:40.304Z,7.00
2023-02-26T09:49:40.315Z,6.70
2023-02-26T09:50:40.282Z,7.80
2023-02-26T09:51:40.293Z,5.70
2023-02-26T09:52:40.288Z,8.50
2023-02-26T09:53:40.274Z,5.50
2023-02-26T09:54:40.241Z,8.90
2023-02-26T09:55:40.255Z,7.50
2023-02-26T09:56:40.225Z,7.10
2023-02-26T09:57:40.240Z,7.10
2023-02-26T09:58:40.223Z,5.50
2023-02-26T09:59:40.215Z,6.10
2023-02-26T10:00:40.185Z,6.80
2023-02-26T10:01:40.227Z,7.30
2023-02-26T10:02:40.170Z,8.40
2023-02-26T10:03:40.201Z,7.10
2023-02-26T10:04:40.176Z,7.10
2023-02-26T10:05:40.152Z,7.00
2023-02-26T10:06:40.122Z,5.10
2023-02-26T10:07:40.144Z,6.70
2023-02-26T10:08:40.111Z,7.00
2023-02-26T10:09:40.119Z,8.60
2023-02-26T10:10:40.095Z,8.90
2023-02-26T10:11:40.095Z,7.20
2023-02-26T10:12:40.104Z,6.60
2023-02-26T10:13:56.127Z,5.20
2023-02-26T10:14:40.084Z,7.60
2023-02-26T10:15:40.059Z,6.70
2023-02-26T10:16:40.202Z,5.90
2023-02-26T10:17:40.053Z,7.40
2023-02-26T10:18:40.095Z,5.40
2023-02-26T10:19:40.057Z,4.60
2023-02-26T10:20:40.073Z,5.80
2023-02-26T10:21:40.017Z,5.10
2023-02-26T10:22:40.051Z,7.30
2023-02-26T10:23:41.636Z,7.80
2023-02-26T10:24:39.951Z,4.90
2023-02-26T10:25:39.960Z,6.10
2023-02-26T10:26:39.929Z,6.60
2023-02-26T10:27:39.935Z,9.00
2023-02-26T10:28:39.922Z,3.70
2023-02-26T10:29:39.912Z,6.20
2023-02-26T10:30:39.992Z,6.20
2023-02-26T10:31:39.937Z,5.80
2023-02-26T10:32:40.052Z,7.30
2023-02-26T10:33:39.867Z,5.80
2023-02-26T10:34:39.846Z,5.00
2023-02-26T10:35:39.841Z,5.00
2023-02-26T10:36:39.808Z,6.50
2023-02-26T10:37:39.821Z,5.10
2023-02-26T10:38:39.788Z,5.20
2023-02-26T10:39:39.798Z,5.20
2023-02-26T10:40:39.783Z,4.60
2023-02-26T10:41:39.784Z,7.00
2023-02-26T10:42:39.745Z,5.60
2023-02-26T10:43:39.762Z,6.20
2023-02-26T10:44:39.724Z,4.40
2023-02-26T10:45:39.820Z,6.60
2023-02-26T10:46:39.719Z,8.00
2023-02-26T10:47:39.726Z,5.10
2023-02-26T10:48:39.683Z,6.30
2023-02-26T10:49:39.698Z,6.70
2023-02-26T10:50:39.660Z,5.30
2023-02-26T10:51:39.683Z,6.30
2023-02-26T10:52:39.664Z,5.30
2023-02-26T10:53:40.735Z,5.90
2023-02-26T10:54:39.650Z,5.30
2023-02-26T10:55:39.642Z,4.30
2023-02-26T10:56:39.601Z,4.80
2023-02-26T10:57:39.624Z,6.20
2023-02-26T10:58:39.602Z,5.50
2023-02-26T10:59:39.591Z,6.00
2023-02-26T11:00:39.555Z,5.70
2023-02-26T11:01:39.627Z,6.00
2023-02-26T11:02:39.598Z,5.40
2023-02-26T11:03:39.552Z,6.20
2023-02-26T11:04:39.529Z,5.80
2023-02-26T11:05:39.532Z,4.70
2023-02-26T11:06:39.498Z,7.80
2023-02-26T11:07:39.509Z,6.10
2023-02-26T11:08:39.482Z,8.80
2023-02-26T11:09:39.491Z,4.80
2023-02-26T11:10:39.476Z,7.40
2023-02-26T11:11:39.468Z,6.40
2023-02-26T11:12:39.436Z,6.70
2023-02-26T11:13:39.471Z,8.40
2023-02-26T11:14:39.416Z,7.20
2023-02-26T11:15:39.457Z,6.10
2023-02-26T11:16:39.452Z,6.90
2023-02-26T11:17:39.412Z,3.90
2023-02-26T11:18:39.397Z,5.30
2023-02-26T11:19:39.402Z,5.50
2023-02-26T11:20:39.359Z,10.40
2023-02-26T11:21:39.364Z,5.70
2023-02-26T11:22:39.357Z,4.80
2023-02-26T11:23:39.344Z,8.10
2023-02-26T11:24:39.308Z,5.30
2023-02-26T11:25:39.325Z,4.90
2023-02-26T11:26:39.289Z,4.50
2023-02-26T11:27:39.298Z,6.10
2023-02-26T11:28:39.293Z,9.30
2023-02-26T11:29:39.280Z,4.80
2023-02-26T11:30:39.265Z,3.20
2023-02-26T11:31:41.725Z,4.90
2023-02-26T11:32:39.253Z,7.70
2023-02-26T11:33:39.244Z,4.20
2023-02-26T11:34:39.217Z,5.10
2023-02-26T11:35:39.217Z,4.10
2023-02-26T11:36:39.182Z,5.10
2023-02-26T11:37:39.191Z,5.40
2023-02-26T11:38:39.162Z,4.10
2023-02-26T11:39:39.190Z,5.50
2023-02-26T11:40:39.152Z,4.60
2023-02-26T11:41:39.152Z,3.90
2023-02-26T11:42:39.118Z,5.80
2023-02-26T11:43:39.148Z,3.20
2023-02-26T11:44:39.097Z,5.90
2023-02-26T11:45:39.107Z,5.20
2023-02-26T11:46:39.102Z,5.70
2023-02-26T11:47:39.085Z,4.10
2023-02-26T11:48:39.052Z,5.20
2023-02-26T11:49:39.066Z,6.10
2023-02-26T11:50:39.032Z,4.60
2023-02-26T11:51:39.044Z,5.90
2023-02-26T11:52:39.038Z,5.60
2023-02-26T11:53:39.021Z,4.70
2023-02-26T11:54:38.996Z,5.40
2023-02-26T11:55:39.000Z,5.60
2023-02-26T11:56:38.975Z,5.20
2023-02-26T11:57:38.976Z,6.30
2023-02-26T11:58:38.986Z,5.10
2023-02-26T11:59:38.961Z,4.80
2023-02-26T12:00:38.922Z,4.00
2023-02-26T12:01:38.933Z,4.40
2023-02-26T12:02:38.896Z,6.20
2023-02-26T12:03:38.934Z,3.20
2023-02-26T12:04:38.906Z,5.20
2023-02-26T12:05:38.890Z,5.80
2023-02-26T12:06:38.854Z,4.30
2023-02-26T12:07:38.864Z,3.60
2023-02-26T12:08:38.831Z,5.70
2023-02-26T12:09:38.856Z,4.60
2023-02-26T12:10:38.826Z,5.60
2023-02-26T12:11:38.823Z,4.90
2023-02-26T12:12:38.788Z,4.60
2023-02-26T12:13:38.802Z,4.30
2023-02-26T12:14:38.764Z,4.10
2023-02-26T12:15:38.833Z,5.80
2023-02-26T12:16:38.776Z,3.40
2023-02-26T12:17:38.761Z,4.20
2023-02-26T12:18:38.727Z,3.60
2023-02-26T12:19:38.742Z,4.40
2023-02-26T12:20:38.714Z,4.40
2023-02-26T12:21:38.719Z,3.20
2023-02-26T12:22:38.705Z,3.90
2023-02-26T12:23:38.695Z,5.00
2023-02-26T12:24:38.667Z,4.90
2023-02-26T12:25:38.673Z,4.80
2023-02-26T12:26:38.642Z,4.00
2023-02-26T12:27:38.656Z,5.00
2023-02-26T12:28:38.660Z,4.20
2023-02-26T12:29:38.636Z,4.10
2023-02-26T12:30:38.666Z,5.70
2023-02-26T12:31:38.639Z,4.50
2023-02-26T12:32:38.709Z,4.40
2023-02-26T12:33:38.566Z,3.50
2023-02-26T12:34:38.605Z,3.20
2023-02-26T12:35:38.556Z,3.60
2023-02-26T12:36:48.289Z,2.30
2023-02-26T12:37:38.533Z,3.30
2023-02-26T12:38:38.543Z,3.60
2023-02-26T12:39:38.508Z,4.20
2023-02-26T12:40:38.542Z,3.70
2023-02-26T12:41:38.487Z,3.50
2023-02-26T12:42:38.501Z,3.00
2023-02-26T12:43:38.471Z,3.60
2023-02-26T12:44:38.483Z,3.00
2023-02-26T12:45:38.442Z,3.30
2023-02-26T12:46:38.543Z,3.60
2023-02-26T12:47:38.424Z,3.10
2023-02-26T12:48:38.444Z,4.00
2023-02-26T12:49:38.528Z,3.70
2023-02-26T12:50:38.429Z,2.90
2023-02-26T12:51:38.392Z,3.40
2023-02-26T12:52:38.452Z,14.10
2023-02-26T12:53:38.376Z,3.30
2023-02-26T12:54:38.370Z,2.30
2023-02-26T12:55:38.342Z,2.30
2023-02-26T12:56:38.385Z,3.40
2023-02-26T12:57:38.322Z,4.50
2023-02-26T12:58:38.354Z,4.00
2023-02-26T12:59:38.318Z,3.30
2023-02-26T13:00:38.348Z,3.80
2023-02-26T13:01:38.277Z,5.00
2023-02-26T13:02:38.286Z,2.40
2023-02-26T13:03:38.276Z,4.80
2023-02-26T13:04:38.280Z,5.80
2023-02-26T13:05:38.234Z,3.20
2023-02-26T13:06:38.243Z,2.90
2023-02-26T13:07:38.209Z,3.30
2023-02-26T13:08:38.232Z,3.40
2023-02-26T13:09:38.187Z,3.60
2023-02-26T13:10:38.217Z,3.70
2023-02-26T13:11:38.168Z,3.30
2023-02-26T13:12:38.221Z,4.10